sensor_id;sensor_type;location;lat;lon;timestamp;P1;durP1;ratioP1;P2;durP2;ratioP2
84138;SDS011;74250;51.528;6.748;2024-02-14T00:00:17;13.43;;;4.30;;
84138;SDS011;74250;51.528;6.748;2024-02-14T00:02:43;13.50;;;5.75;;
84138;SDS011;74250;51.528;6.748;2024-02-14T00:05:09;12.25;;;4.03;;
84138;SDS011;74250;51.528;6.748;2024-02-14T00:07:36;9.35;;;5.07;;
84138;SDS011;74250;51.528;6.748;2024-02-14T00:10:07;11.68;;;4.65;;
84138;SDS011;74250;51.528;6.748;2024-02-14T00:12:33;11.88;;;3.45;;
84138;SDS011;74250;51.528;6.748;2024-02-14T00:15:00;11.38;;;3.30;;
84138;SDS011;74250;51.528;6.748;2024-02-14T00:17:28;9.55;;;4.57;;
84138;SDS011;74250;51.528;6.748;2024-02-14T00:19:54;10.90;;;4.90;;
84138;SDS011;74250;51.528;6.748;2024-02-14T00:22:20;13.65;;;2.97;;
84138;SDS011;74250;51.528;6.748;2024-02-14T00:24:45;8.23;;;4.38;;
84138;SDS011;74250;51.528;6.748;2024-02-14T00:27:10;10.25;;;5.45;;
84138;SDS011;74250;51.528;6.748;2024-02-14T00:29:35;7.72;;;3.88;;
84138;SDS011;74250;51.528;6.748;2024-02-14T00:32:01;8.15;;;2.97;;
84138;SDS011;74250;51.528;6.748;2024-02-14T00:34:26;8.32;;;2.95;;
84138;SDS011;74250;51.528;6.748;2024-02-14T00:36:52;9.63;;;3.40;;
84138;SDS011;74250;51.528;6.748;2024-02-14T00:39:17;6.45;;;3.13;;
84138;SDS011;74250;51.528;6.748;2024-02-14T00:41:43;10.00;;;4.75;;
84138;SDS011;74250;51.528;6.748;2024-02-14T00:44:08;10.02;;;5.40;;
84138;SDS011;74250;51.528;6.748;2024-02-14T00:46:34;9.65;;;5.20;;
84138;SDS011;74250;51.528;6.748;2024-02-14T00:48:59;10.95;;;4.63;;
84138;SDS011;74250;51.528;6.748;2024-02-14T00:51:24;12.57;;;4.25;;
84138;SDS011;74250;51.528;6.748;2024-02-14T00:53:50;12.00;;;5.03;;
84138;SDS011;74250;51.528;6.748;2024-02-14T00:56:16;12.38;;;6.55;;
84138;SDS011;74250;51.528;6.748;2024-02-14T00:58:42;12.10;;;6.20;;
84138;SDS011;74250;51.528;6.748;2024-02-14T01:01:07;10.90;;;5.25;;
84138;SDS011;74250;51.528;6.748;2024-02-14T01:03:33;9.35;;;5.45;;
84138;SDS011;74250;51.528;6.748;2024-02-14T01:05:58;18.63;;;6.38;;
84138;SDS011;74250;51.528;6.748;2024-02-14T01:08:23;14.95;;;7.20;;
84138;SDS011;74250;51.528;6.748;2024-02-14T01:10:49;15.65;;;7.13;;
84138;SDS011;74250;51.528;6.748;2024-02-14T01:13:16;14.18;;;5.32;;
84138;SDS011;74250;51.528;6.748;2024-02-14T01:15:43;12.27;;;6.93;;
84138;SDS011;74250;51.528;6.748;2024-02-14T01:18:08;14.70;;;6.75;;
84138;SDS011;74250;51.528;6.748;2024-02-14T01:20:35;10.57;;;5.55;;
84138;SDS011;74250;51.528;6.748;2024-02-14T01:23:00;15.88;;;6.55;;
84138;SDS011;74250;51.528;6.748;2024-02-14T01:25:26;13.45;;;5.43;;
84138;SDS011;74250;51.528;6.748;2024-02-14T01:27:51;13.75;;;5.15;;
84138;SDS011;74250;51.528;6.748;2024-02-14T01:30:17;11.30;;;5.60;;
84138;SDS011;74250;51.528;6.748;2024-02-14T01:32:43;12.98;;;6.32;;
84138;SDS011;74250;51.528;6.748;2024-02-14T01:35:08;11.55;;;4.90;;
84138;SDS011;74250;51.528;6.748;2024-02-14T01:37:34;11.70;;;4.30;;
84138;SDS011;74250;51.528;6.748;2024-02-14T01:40:00;14.73;;;5.32;;
84138;SDS011;74250;51.528;6.748;2024-02-14T01:42:25;11.23;;;4.80;;
84138;SDS011;74250;51.528;6.748;2024-02-14T01:44:52;11.57;;;5.22;;
84138;SDS011;74250;51.528;6.748;2024-02-14T01:47:19;14.57;;;3.83;;
84138;SDS011;74250;51.528;6.748;2024-02-14T01:49:45;10.85;;;4.65;;
84138;SDS011;74250;51.528;6.748;2024-02-14T01:52:11;15.88;;;3.95;;
84138;SDS011;74250;51.528;6.748;2024-02-14T01:54:37;6.68;;;2.20;;
84138;SDS011;74250;51.528;6.748;2024-02-14T01:57:03;9.82;;;3.83;;
84138;SDS011;74250;51.528;6.748;2024-02-14T02:01:55;8.45;;;2.47;;
84138;SDS011;74250;51.528;6.748;2024-02-14T02:04:20;10.27;;;4.80;;
84138;SDS011;74250;51.528;6.748;2024-02-14T02:06:46;6.88;;;5.13;;
84138;SDS011;74250;51.528;6.748;2024-02-14T02:09:12;7.22;;;2.55;;
84138;SDS011;74250;51.528;6.748;2024-02-14T02:11:50;5.80;;;2.40;;
84138;SDS011;74250;51.528;6.748;2024-02-14T02:14:16;8.27;;;1.98;;
84138;SDS011;74250;51.528;6.748;2024-02-14T02:16:41;4.88;;;1.75;;
84138;SDS011;74250;51.528;6.748;2024-02-14T02:19:07;3.70;;;1.80;;
84138;SDS011;74250;51.528;6.748;2024-02-14T02:21:34;14.55;;;5.32;;
84138;SDS011;74250;51.528;6.748;2024-02-14T02:24:00;6.78;;;1.80;;
84138;SDS011;74250;51.528;6.748;2024-02-14T02:26:26;5.63;;;1.83;;
84138;SDS011;74250;51.528;6.748;2024-02-14T02:28:52;6.45;;;2.03;;
84138;SDS011;74250;51.528;6.748;2024-02-14T02:31:18;4.28;;;3.20;;
84138;SDS011;74250;51.528;6.748;2024-02-14T02:33:44;4.00;;;1.95;;
84138;SDS011;74250;51.528;6.748;2024-02-14T02:36:09;3.55;;;0.82;;
84138;SDS011;74250;51.528;6.748;2024-02-14T02:38:34;5.80;;;3.38;;
84138;SDS011;74250;51.528;6.748;2024-02-14T02:41:01;6.75;;;3.70;;
84138;SDS011;74250;51.528;6.748;2024-02-14T02:43:28;5.88;;;2.97;;
84138;SDS011;74250;51.528;6.748;2024-02-14T02:45:53;7.30;;;3.42;;
84138;SDS011;74250;51.528;6.748;2024-02-14T02:48:20;3.88;;;1.08;;
84138;SDS011;74250;51.528;6.748;2024-02-14T02:50:48;4.63;;;0.85;;
84138;SDS011;74250;51.528;6.748;2024-02-14T02:53:14;3.03;;;1.65;;
84138;SDS011;74250;51.528;6.748;2024-02-14T02:55:39;5.38;;;2.50;;
84138;SDS011;74250;51.528;6.748;2024-02-14T02:58:05;5.35;;;3.10;;
84138;SDS011;74250;51.528;6.748;2024-02-14T03:00:31;6.22;;;3.25;;
84138;SDS011;74250;51.528;6.748;2024-02-14T03:02:57;5.03;;;2.95;;
84138;SDS011;74250;51.528;6.748;2024-02-14T03:05:22;4.78;;;1.75;;
84138;SDS011;74250;51.528;6.748;2024-02-14T03:07:48;2.72;;;0.93;;
84138;SDS011;74250;51.528;6.748;2024-02-14T03:10:15;3.13;;;1.38;;
84138;SDS011;74250;51.528;6.748;2024-02-14T03:12:44;2.85;;;1.20;;
84138;SDS011;74250;51.528;6.748;2024-02-14T03:15:10;2.97;;;1.33;;
84138;SDS011;74250;51.528;6.748;2024-02-14T03:17:36;4.43;;;2.75;;
84138;SDS011;74250;51.528;6.748;2024-02-14T03:20:02;6.82;;;1.08;;
84138;SDS011;74250;51.528;6.748;2024-02-14T03:22:28;6.63;;;2.40;;
84138;SDS011;74250;51.528;6.748;2024-02-14T03:24:53;5.20;;;3.05;;
84138;SDS011;74250;51.528;6.748;2024-02-14T03:27:19;4.22;;;2.15;;
84138;SDS011;74250;51.528;6.748;2024-02-14T03:29:44;3.05;;;1.15;;
84138;SDS011;74250;51.528;6.748;2024-02-14T03:32:10;4.65;;;1.20;;
84138;SDS011;74250;51.528;6.748;2024-02-14T03:34:35;3.33;;;2.00;;
84138;SDS011;74250;51.528;6.748;2024-02-14T03:37:01;4.25;;;3.00;;
84138;SDS011;74250;51.528;6.748;2024-02-14T03:39:32;4.10;;;2.35;;
84138;SDS011;74250;51.528;6.748;2024-02-14T03:41:57;7.55;;;2.45;;
84138;SDS011;74250;51.528;6.748;2024-02-14T03:44:23;2.80;;;1.95;;
84138;SDS011;74250;51.528;6.748;2024-02-14T03:46:49;5.13;;;1.38;;
84138;SDS011;74250;51.528;6.748;2024-02-14T03:49:14;7.60;;;2.05;;
84138;SDS011;74250;51.528;6.748;2024-02-14T03:51:40;3.85;;;1.08;;
84138;SDS011;74250;51.528;6.748;2024-02-14T03:54:05;4.57;;;2.40;;
84138;SDS011;74250;51.528;6.748;2024-02-14T03:56:31;5.10;;;2.67;;
84138;SDS011;74250;51.528;6.748;2024-02-14T03:58:58;4.30;;;3.08;;
84138;SDS011;74250;51.528;6.748;2024-02-14T04:01:24;5.30;;;1.42;;
84138;SDS011;74250;51.528;6.748;2024-02-14T04:03:49;4.40;;;2.40;;
84138;SDS011;74250;51.528;6.748;2024-02-14T04:06:15;3.53;;;2.05;;
84138;SDS011;74250;51.528;6.748;2024-02-14T04:08:40;3.65;;;2.40;;
84138;SDS011;74250;51.528;6.748;2024-02-14T04:11:05;2.95;;;2.08;;
84138;SDS011;74250;51.528;6.748;2024-02-14T04:13:31;6.22;;;2.53;;
84138;SDS011;74250;51.528;6.748;2024-02-14T04:15:56;5.15;;;3.22;;
84138;SDS011;74250;51.528;6.748;2024-02-14T04:18:21;4.75;;;2.17;;
84138;SDS011;74250;51.528;6.748;2024-02-14T04:20:47;2.92;;;1.08;;
84138;SDS011;74250;51.528;6.748;2024-02-14T04:23:13;4.25;;;2.85;;
84138;SDS011;74250;51.528;6.748;2024-02-14T04:25:38;4.00;;;1.50;;
84138;SDS011;74250;51.528;6.748;2024-02-14T04:28:04;4.18;;;3.72;;
84138;SDS011;74250;51.528;6.748;2024-02-14T04:30:29;6.07;;;2.33;;
84138;SDS011;74250;51.528;6.748;2024-02-14T04:32:56;2.75;;;1.55;;
84138;SDS011;74250;51.528;6.748;2024-02-14T04:35:21;4.53;;;2.42;;
84138;SDS011;74250;51.528;6.748;2024-02-14T04:37:47;5.07;;;2.00;;
84138;SDS011;74250;51.528;6.748;2024-02-14T04:42:39;4.63;;;1.48;;
84138;SDS011;74250;51.528;6.748;2024-02-14T04:45:06;3.22;;;2.50;;
84138;SDS011;74250;51.528;6.748;2024-02-14T04:47:32;5.18;;;3.55;;
84138;SDS011;74250;51.528;6.748;2024-02-14T04:49:57;2.75;;;2.53;;
84138;SDS011;74250;51.528;6.748;2024-02-14T04:52:23;3.58;;;2.65;;
84138;SDS011;74250;51.528;6.748;2024-02-14T04:54:49;4.80;;;3.03;;
84138;SDS011;74250;51.528;6.748;2024-02-14T04:57:14;4.75;;;2.67;;
84138;SDS011;74250;51.528;6.748;2024-02-14T04:59:40;4.20;;;1.27;;
84138;SDS011;74250;51.528;6.748;2024-02-14T05:02:06;3.25;;;2.95;;
84138;SDS011;74250;51.528;6.748;2024-02-14T05:04:32;4.07;;;2.38;;
84138;SDS011;74250;51.528;6.748;2024-02-14T05:06:57;3.50;;;3.17;;
84138;SDS011;74250;51.528;6.748;2024-02-14T05:09:22;3.92;;;2.95;;
84138;SDS011;74250;51.528;6.748;2024-02-14T05:11:48;3.95;;;2.83;;
84138;SDS011;74250;51.528;6.748;2024-02-14T05:14:13;5.38;;;2.83;;
84138;SDS011;74250;51.528;6.748;2024-02-14T05:16:39;4.68;;;1.70;;
84138;SDS011;74250;51.528;6.748;2024-02-14T05:19:04;4.50;;;2.45;;
84138;SDS011;74250;51.528;6.748;2024-02-14T05:21:29;5.65;;;4.30;;
84138;SDS011;74250;51.528;6.748;2024-02-14T05:23:55;5.53;;;3.20;;
84138;SDS011;74250;51.528;6.748;2024-02-14T05:26:20;2.90;;;1.73;;
84138;SDS011;74250;51.528;6.748;2024-02-14T05:28:46;3.13;;;2.80;;
84138;SDS011;74250;51.528;6.748;2024-02-14T05:31:11;3.53;;;1.60;;
84138;SDS011;74250;51.528;6.748;2024-02-14T05:33:37;4.78;;;1.35;;
84138;SDS011;74250;51.528;6.748;2024-02-14T05:36:02;5.10;;;2.63;;
84138;SDS011;74250;51.528;6.748;2024-02-14T05:38:28;4.00;;;1.50;;
84138;SDS011;74250;51.528;6.748;2024-02-14T05:40:54;4.55;;;2.88;;
84138;SDS011;74250;51.528;6.748;2024-02-14T05:43:20;3.72;;;2.05;;
84138;SDS011;74250;51.528;6.748;2024-02-14T05:48:12;4.63;;;2.47;;
84138;SDS011;74250;51.528;6.748;2024-02-14T05:50:37;4.78;;;2.60;;
84138;SDS011;74250;51.528;6.748;2024-02-14T05:53:03;4.38;;;2.05;;
84138;SDS011;74250;51.528;6.748;2024-02-14T05:55:29;4.65;;;1.98;;
84138;SDS011;74250;51.528;6.748;2024-02-14T05:57:54;4.97;;;1.83;;
84138;SDS011;74250;51.528;6.748;2024-02-14T06:00:19;4.65;;;1.95;;
84138;SDS011;74250;51.528;6.748;2024-02-14T06:02:48;3.63;;;1.75;;
84138;SDS011;74250;51.528;6.748;2024-02-14T06:05:14;4.20;;;3.13;;
84138;SDS011;74250;51.528;6.748;2024-02-14T06:07:43;4.43;;;3.47;;
84138;SDS011;74250;51.528;6.748;2024-02-14T06:10:12;6.88;;;4.07;;
84138;SDS011;74250;51.528;6.748;2024-02-14T06:12:37;5.05;;;3.42;;
84138;SDS011;74250;51.528;6.748;2024-02-14T06:15:05;5.05;;;3.45;;
84138;SDS011;74250;51.528;6.748;2024-02-14T06:17:31;5.88;;;3.25;;
84138;SDS011;74250;51.528;6.748;2024-02-14T06:19:56;4.15;;;2.67;;
84138;SDS011;74250;51.528;6.748;2024-02-14T06:22:22;6.13;;;2.80;;
84138;SDS011;74250;51.528;6.748;2024-02-14T06:24:48;5.90;;;3.97;;
84138;SDS011;74250;51.528;6.748;2024-02-14T06:27:16;5.18;;;2.88;;
84138;SDS011;74250;51.528;6.748;2024-02-14T06:29:42;7.07;;;4.10;;
84138;SDS011;74250;51.528;6.748;2024-02-14T06:32:08;8.20;;;4.10;;
84138;SDS011;74250;51.528;6.748;2024-02-14T06:34:33;5.68;;;4.55;;
84138;SDS011;74250;51.528;6.748;2024-02-14T06:36:59;6.45;;;2.63;;
84138;SDS011;74250;51.528;6.748;2024-02-14T06:39:24;6.28;;;5.35;;
84138;SDS011;74250;51.528;6.748;2024-02-14T06:41:49;7.30;;;4.65;;
84138;SDS011;74250;51.528;6.748;2024-02-14T06:44:15;6.47;;;4.20;;
84138;SDS011;74250;51.528;6.748;2024-02-14T06:46:40;4.95;;;4.50;;
84138;SDS011;74250;51.528;6.748;2024-02-14T06:49:06;7.88;;;5.78;;
84138;SDS011;74250;51.528;6.748;2024-02-14T06:51:32;6.97;;;5.03;;
84138;SDS011;74250;51.528;6.748;2024-02-14T06:53:58;5.50;;;3.40;;
84138;SDS011;74250;51.528;6.748;2024-02-14T06:56:24;6.60;;;4.72;;
84138;SDS011;74250;51.528;6.748;2024-02-14T06:58:49;5.20;;;4.60;;
84138;SDS011;74250;51.528;6.748;2024-02-14T07:01:24;6.57;;;3.97;;
84138;SDS011;74250;51.528;6.748;2024-02-14T07:03:50;7.32;;;3.22;;
84138;SDS011;74250;51.528;6.748;2024-02-14T07:06:16;8.25;;;4.47;;
84138;SDS011;74250;51.528;6.748;2024-02-14T07:08:42;6.35;;;4.82;;
84138;SDS011;74250;51.528;6.748;2024-02-14T07:11:07;6.32;;;3.35;;
84138;SDS011;74250;51.528;6.748;2024-02-14T07:13:33;6.72;;;5.20;;
84138;SDS011;74250;51.528;6.748;2024-02-14T07:15:58;6.00;;;4.28;;
84138;SDS011;74250;51.528;6.748;2024-02-14T07:18:23;7.40;;;3.00;;
84138;SDS011;74250;51.528;6.748;2024-02-14T07:20:49;8.43;;;3.70;;
84138;SDS011;74250;51.528;6.748;2024-02-14T07:23:15;6.88;;;6.20;;
84138;SDS011;74250;51.528;6.748;2024-02-14T07:25:42;8.65;;;6.25;;
84138;SDS011;74250;51.528;6.748;2024-02-14T07:28:08;8.32;;;4.57;;
84138;SDS011;74250;51.528;6.748;2024-02-14T07:30:33;6.65;;;5.68;;
84138;SDS011;74250;51.528;6.748;2024-02-14T07:32:59;7.75;;;4.90;;
84138;SDS011;74250;51.528;6.748;2024-02-14T07:35:24;6.60;;;4.50;;
84138;SDS011;74250;51.528;6.748;2024-02-14T07:37:50;6.35;;;4.10;;
84138;SDS011;74250;51.528;6.748;2024-02-14T07:40:19;8.05;;;5.65;;
84138;SDS011;74250;51.528;6.748;2024-02-14T07:42:45;10.70;;;5.63;;
84138;SDS011;74250;51.528;6.748;2024-02-14T07:45:11;7.60;;;6.05;;
84138;SDS011;74250;51.528;6.748;2024-02-14T07:47:38;8.68;;;5.95;;
84138;SDS011;74250;51.528;6.748;2024-02-14T07:50:05;7.30;;;4.43;;
84138;SDS011;74250;51.528;6.748;2024-02-14T07:52:31;9.68;;;5.60;;
84138;SDS011;74250;51.528;6.748;2024-02-14T07:54:57;9.02;;;7.47;;
84138;SDS011;74250;51.528;6.748;2024-02-14T07:57:23;7.53;;;4.80;;
84138;SDS011;74250;51.528;6.748;2024-02-14T07:59:50;6.68;;;4.60;;
84138;SDS011;74250;51.528;6.748;2024-02-14T08:02:16;7.07;;;5.97;;
84138;SDS011;74250;51.528;6.748;2024-02-14T08:04:42;7.75;;;5.05;;
84138;SDS011;74250;51.528;6.748;2024-02-14T08:07:07;9.27;;;4.35;;
84138;SDS011;74250;51.528;6.748;2024-02-14T08:09:32;10.90;;;4.50;;
84138;SDS011;74250;51.528;6.748;2024-02-14T08:11:58;10.52;;;5.07;;
84138;SDS011;74250;51.528;6.748;2024-02-14T08:14:23;11.10;;;3.90;;
84138;SDS011;74250;51.528;6.748;2024-02-14T08:16:49;8.10;;;3.83;;
84138;SDS011;74250;51.528;6.748;2024-02-14T08:19:14;11.43;;;5.60;;
84138;SDS011;74250;51.528;6.748;2024-02-14T08:21:40;8.15;;;3.97;;
84138;SDS011;74250;51.528;6.748;2024-02-14T08:24:06;7.07;;;4.05;;
84138;SDS011;74250;51.528;6.748;2024-02-14T08:26:32;8.75;;;4.75;;
84138;SDS011;74250;51.528;6.748;2024-02-14T08:28:57;6.50;;;4.75;;
84138;SDS011;74250;51.528;6.748;2024-02-14T08:31:23;8.98;;;4.63;;
84138;SDS011;74250;51.528;6.748;2024-02-14T08:33:49;5.60;;;3.05;;
84138;SDS011;74250;51.528;6.748;2024-02-14T08:36:14;5.72;;;3.88;;
84138;SDS011;74250;51.528;6.748;2024-02-14T08:38:42;7.50;;;3.38;;
84138;SDS011;74250;51.528;6.748;2024-02-14T08:41:08;6.82;;;4.32;;
84138;SDS011;74250;51.528;6.748;2024-02-14T08:43:37;7.75;;;4.85;;
84138;SDS011;74250;51.528;6.748;2024-02-14T08:46:03;6.30;;;3.72;;
84138;SDS011;74250;51.528;6.748;2024-02-14T08:48:28;5.90;;;4.35;;
84138;SDS011;74250;51.528;6.748;2024-02-14T08:50:57;4.82;;;3.65;;
84138;SDS011;74250;51.528;6.748;2024-02-14T08:53:23;8.27;;;2.63;;
84138;SDS011;74250;51.528;6.748;2024-02-14T08:55:50;5.90;;;3.63;;
84138;SDS011;74250;51.528;6.748;2024-02-14T08:58:16;5.50;;;2.95;;
84138;SDS011;74250;51.528;6.748;2024-02-14T09:00:42;5.88;;;3.72;;
84138;SDS011;74250;51.528;6.748;2024-02-14T09:03:07;8.07;;;2.47;;
84138;SDS011;74250;51.528;6.748;2024-02-14T09:05:33;4.93;;;2.22;;
84138;SDS011;74250;51.528;6.748;2024-02-14T09:07:59;5.82;;;2.47;;
84138;SDS011;74250;51.528;6.748;2024-02-14T09:10:26;6.10;;;3.90;;
84138;SDS011;74250;51.528;6.748;2024-02-14T09:12:52;6.88;;;3.53;;
84138;SDS011;74250;51.528;6.748;2024-02-14T09:15:18;10.93;;;4.20;;
84138;SDS011;74250;51.528;6.748;2024-02-14T09:17:44;6.20;;;2.33;;
84138;SDS011;74250;51.528;6.748;2024-02-14T09:20:10;6.75;;;2.45;;
84138;SDS011;74250;51.528;6.748;2024-02-14T09:22:38;9.85;;;2.78;;
84138;SDS011;74250;51.528;6.748;2024-02-14T09:25:06;9.05;;;3.00;;
84138;SDS011;74250;51.528;6.748;2024-02-14T09:27:34;6.18;;;2.33;;
84138;SDS011;74250;51.528;6.748;2024-02-14T09:30:00;4.35;;;2.63;;
84138;SDS011;74250;51.528;6.748;2024-02-14T09:32:32;6.68;;;3.88;;
84138;SDS011;74250;51.528;6.748;2024-02-14T09:34:58;9.27;;;3.10;;
84138;SDS011;74250;51.528;6.748;2024-02-14T09:37:24;5.90;;;2.30;;
84138;SDS011;74250;51.528;6.748;2024-02-14T09:39:50;7.07;;;2.95;;
84138;SDS011;74250;51.528;6.748;2024-02-14T09:42:16;4.35;;;2.85;;
84138;SDS011;74250;51.528;6.748;2024-02-14T09:44:42;4.28;;;3.00;;
84138;SDS011;74250;51.528;6.748;2024-02-14T09:47:09;10.73;;;3.45;;
84138;SDS011;74250;51.528;6.748;2024-02-14T09:49:34;6.60;;;4.03;;
84138;SDS011;74250;51.528;6.748;2024-02-14T09:52:04;7.55;;;3.22;;
84138;SDS011;74250;51.528;6.748;2024-02-14T09:54:31;6.00;;;3.13;;
84138;SDS011;74250;51.528;6.748;2024-02-14T09:56:57;8.82;;;1.95;;
84138;SDS011;74250;51.528;6.748;2024-02-14T09:59:23;6.00;;;3.03;;
84138;SDS011;74250;51.528;6.748;2024-02-14T10:01:48;6.28;;;2.97;;
84138;SDS011;74250;51.528;6.748;2024-02-14T10:04:15;5.43;;;2.30;;
84138;SDS011;74250;51.528;6.748;2024-02-14T10:06:43;3.92;;;1.98;;
84138;SDS011;74250;51.528;6.748;2024-02-14T10:09:08;5.03;;;2.53;;
84138;SDS011;74250;51.528;6.748;2024-02-14T10:11:35;6.07;;;2.83;;
84138;SDS011;74250;51.528;6.748;2024-02-14T10:14:02;4.18;;;1.55;;
84138;SDS011;74250;51.528;6.748;2024-02-14T10:18:54;3.67;;;2.17;;
84138;SDS011;74250;51.528;6.748;2024-02-14T10:21:19;5.15;;;2.30;;
84138;SDS011;74250;51.528;6.748;2024-02-14T10:23:47;5.60;;;2.65;;
84138;SDS011;74250;51.528;6.748;2024-02-14T10:26:14;4.15;;;1.65;;
84138;SDS011;74250;51.528;6.748;2024-02-14T10:28:41;3.90;;;2.42;;
84138;SDS011;74250;51.528;6.748;2024-02-14T10:31:07;7.97;;;1.90;;
84138;SDS011;74250;51.528;6.748;2024-02-14T10:33:36;5.15;;;2.78;;
84138;SDS011;74250;51.528;6.748;2024-02-14T10:36:02;6.93;;;2.92;;
84138;SDS011;74250;51.528;6.748;2024-02-14T10:38:33;4.63;;;2.17;;
84138;SDS011;74250;51.528;6.748;2024-02-14T10:40:59;6.32;;;2.22;;
84138;SDS011;74250;51.528;6.748;2024-02-14T10:43:26;4.53;;;1.88;;
84138;SDS011;74250;51.528;6.748;2024-02-14T10:45:55;6.53;;;1.88;;
84138;SDS011;74250;51.528;6.748;2024-02-14T10:48:22;4.22;;;1.85;;
84138;SDS011;74250;51.528;6.748;2024-02-14T10:50:52;6.50;;;2.03;;
84138;SDS011;74250;51.528;6.748;2024-02-14T10:53:18;6.07;;;2.72;;
84138;SDS011;74250;51.528;6.748;2024-02-14T10:55:50;5.30;;;2.20;;
84138;SDS011;74250;51.528;6.748;2024-02-14T10:58:16;4.95;;;2.35;;
84138;SDS011;74250;51.528;6.748;2024-02-14T11:00:42;6.05;;;3.58;;
84138;SDS011;74250;51.528;6.748;2024-02-14T11:03:09;5.43;;;2.97;;
84138;SDS011;74250;51.528;6.748;2024-02-14T11:05:43;6.28;;;2.20;;
84138;SDS011;74250;51.528;6.748;2024-02-14T11:08:10;7.32;;;2.30;;
84138;SDS011;74250;51.528;6.748;2024-02-14T11:10:40;6.32;;;2.47;;
84138;SDS011;74250;51.528;6.748;2024-02-14T11:13:13;3.22;;;2.25;;
84138;SDS011;74250;51.528;6.748;2024-02-14T11:15:40;3.20;;;1.92;;
84138;SDS011;74250;51.528;6.748;2024-02-14T11:18:05;4.72;;;2.20;;
84138;SDS011;74250;51.528;6.748;2024-02-14T11:20:34;4.13;;;1.98;;
84138;SDS011;74250;51.528;6.748;2024-02-14T11:23:04;4.85;;;1.67;;
84138;SDS011;74250;51.528;6.748;2024-02-14T11:25:32;5.45;;;3.25;;
84138;SDS011;74250;51.528;6.748;2024-02-14T11:28:12;3.47;;;2.28;;
84138;SDS011;74250;51.528;6.748;2024-02-14T11:30:41;6.15;;;2.53;;
84138;SDS011;74250;51.528;6.748;2024-02-14T11:35:49;3.80;;;2.00;;
84138;SDS011;74250;51.528;6.748;2024-02-14T11:38:16;4.85;;;2.58;;
84138;SDS011;74250;51.528;6.748;2024-02-14T11:40:42;3.80;;;2.03;;
84138;SDS011;74250;51.528;6.748;2024-02-14T11:43:15;4.22;;;2.70;;
84138;SDS011;74250;51.528;6.748;2024-02-14T11:45:48;2.40;;;1.77;;
84138;SDS011;74250;51.528;6.748;2024-02-14T11:48:17;3.78;;;1.83;;
84138;SDS011;74250;51.528;6.748;2024-02-14T11:50:44;4.95;;;1.65;;
84138;SDS011;74250;51.528;6.748;2024-02-14T11:53:10;2.42;;;0.88;;
84138;SDS011;74250;51.528;6.748;2024-02-14T11:55:36;3.15;;;0.82;;
84138;SDS011;74250;51.528;6.748;2024-02-14T11:58:12;4.78;;;4.13;;
84138;SDS011;74250;51.528;6.748;2024-02-14T12:00:42;2.95;;;2.15;;
84138;SDS011;74250;51.528;6.748;2024-02-14T12:03:18;5.53;;;1.90;;
84138;SDS011;74250;51.528;6.748;2024-02-14T12:05:45;3.05;;;0.82;;
84138;SDS011;74250;51.528;6.748;2024-02-14T12:08:12;2.17;;;1.58;;
84138;SDS011;74250;51.528;6.748;2024-02-14T12:10:38;4.13;;;1.80;;
84138;SDS011;74250;51.528;6.748;2024-02-14T12:13:07;4.78;;;0.90;;
84138;SDS011;74250;51.528;6.748;2024-02-14T12:15:37;3.80;;;2.45;;
84138;SDS011;74250;51.528;6.748;2024-02-14T12:18:06;3.25;;;1.85;;
84138;SDS011;74250;51.528;6.748;2024-02-14T12:20:33;5.43;;;3.63;;
84138;SDS011;74250;51.528;6.748;2024-02-14T12:23:01;2.88;;;1.70;;
84138;SDS011;74250;51.528;6.748;2024-02-14T12:25:29;3.15;;;0.95;;
84138;SDS011;74250;51.528;6.748;2024-02-14T12:27:56;4.28;;;1.77;;
84138;SDS011;74250;51.528;6.748;2024-02-14T12:30:44;3.70;;;2.08;;
84138;SDS011;74250;51.528;6.748;2024-02-14T12:33:15;3.78;;;1.60;;
84138;SDS011;74250;51.528;6.748;2024-02-14T12:38:08;2.30;;;0.93;;
84138;SDS011;74250;51.528;6.748;2024-02-14T12:40:37;2.85;;;1.15;;
84138;SDS011;74250;51.528;6.748;2024-02-14T12:43:03;2.40;;;1.27;;
84138;SDS011;74250;51.528;6.748;2024-02-14T12:48:29;4.20;;;1.70;;
84138;SDS011;74250;51.528;6.748;2024-02-14T12:50:55;1.38;;;0.98;;
84138;SDS011;74250;51.528;6.748;2024-02-14T12:55:47;2.63;;;1.70;;
84138;SDS011;74250;51.528;6.748;2024-02-14T12:58:12;3.80;;;0.93;;
84138;SDS011;74250;51.528;6.748;2024-02-14T13:00:38;1.67;;;0.93;;
84138;SDS011;74250;51.528;6.748;2024-02-14T13:03:03;2.17;;;0.98;;
84138;SDS011;74250;51.528;6.748;2024-02-14T13:05:29;3.13;;;1.13;;
84138;SDS011;74250;51.528;6.748;2024-02-14T13:07:55;2.70;;;1.33;;
84138;SDS011;74250;51.528;6.748;2024-02-14T13:10:20;4.70;;;1.33;;
84138;SDS011;74250;51.528;6.748;2024-02-14T13:12:46;3.80;;;1.33;;
84138;SDS011;74250;51.528;6.748;2024-02-14T13:15:12;1.88;;;1.60;;
84138;SDS011;74250;51.528;6.748;2024-02-14T13:17:37;1.92;;;1.25;;
84138;SDS011;74250;51.528;6.748;2024-02-14T13:20:03;4.35;;;1.77;;
84138;SDS011;74250;51.528;6.748;2024-02-14T13:22:28;4.40;;;1.50;;
84138;SDS011;74250;51.528;6.748;2024-02-14T13:24:54;1.60;;;1.00;;
84138;SDS011;74250;51.528;6.748;2024-02-14T13:27:20;2.92;;;1.58;;
84138;SDS011;74250;51.528;6.748;2024-02-14T13:29:48;2.88;;;1.45;;
84138;SDS011;74250;51.528;6.748;2024-02-14T13:32:13;2.22;;;1.23;;
84138;SDS011;74250;51.528;6.748;2024-02-14T13:34:38;2.10;;;1.15;;
84138;SDS011;74250;51.528;6.748;2024-02-14T13:37:04;2.35;;;1.27;;
84138;SDS011;74250;51.528;6.748;2024-02-14T13:39:29;1.88;;;1.38;;
84138;SDS011;74250;51.528;6.748;2024-02-14T13:41:54;2.67;;;1.63;;
84138;SDS011;74250;51.528;6.748;2024-02-14T13:44:23;1.70;;;1.52;;
84138;SDS011;74250;51.528;6.748;2024-02-14T13:49:15;1.45;;;1.08;;
84138;SDS011;74250;51.528;6.748;2024-02-14T13:51:47;2.17;;;1.42;;
84138;SDS011;74250;51.528;6.748;2024-02-14T13:54:13;1.42;;;0.38;;
84138;SDS011;74250;51.528;6.748;2024-02-14T13:56:38;1.60;;;1.50;;
84138;SDS011;74250;51.528;6.748;2024-02-14T13:59:04;3.15;;;1.30;;
84138;SDS011;74250;51.528;6.748;2024-02-14T14:01:30;2.55;;;1.67;;
84138;SDS011;74250;51.528;6.748;2024-02-14T14:03:55;2.15;;;1.65;;
84138;SDS011;74250;51.528;6.748;2024-02-14T14:06:23;2.42;;;1.35;;
84138;SDS011;74250;51.528;6.748;2024-02-14T14:08:49;2.13;;;1.35;;
84138;SDS011;74250;51.528;6.748;2024-02-14T14:11:15;5.18;;;1.10;;
84138;SDS011;74250;51.528;6.748;2024-02-14T14:13:40;4.35;;;2.90;;
84138;SDS011;74250;51.528;6.748;2024-02-14T14:16:05;3.78;;;1.33;;
84138;SDS011;74250;51.528;6.748;2024-02-14T14:18:31;3.05;;;1.13;;
84138;SDS011;74250;51.528;6.748;2024-02-14T14:20:56;6.13;;;2.35;;
84138;SDS011;74250;51.528;6.748;2024-02-14T14:23:22;4.80;;;1.80;;
84138;SDS011;74250;51.528;6.748;2024-02-14T14:25:48;3.38;;;1.75;;
84138;SDS011;74250;51.528;6.748;2024-02-14T14:28:13;2.65;;;1.83;;
84138;SDS011;74250;51.528;6.748;2024-02-14T14:30:39;2.17;;;1.63;;
84138;SDS011;74250;51.528;6.748;2024-02-14T14:33:05;4.93;;;2.08;;
84138;SDS011;74250;51.528;6.748;2024-02-14T14:35:30;3.90;;;1.92;;
84138;SDS011;74250;51.528;6.748;2024-02-14T14:38:02;3.75;;;1.90;;
84138;SDS011;74250;51.528;6.748;2024-02-14T14:40:28;5.93;;;1.98;;
84138;SDS011;74250;51.528;6.748;2024-02-14T14:42:53;3.33;;;2.05;;
84138;SDS011;74250;51.528;6.748;2024-02-14T14:45:19;2.35;;;1.58;;
84138;SDS011;74250;51.528;6.748;2024-02-14T14:47:45;2.97;;;1.77;;
84138;SDS011;74250;51.528;6.748;2024-02-14T14:50:12;2.97;;;1.58;;
84138;SDS011;74250;51.528;6.748;2024-02-14T14:52:38;3.80;;;2.20;;
84138;SDS011;74250;51.528;6.748;2024-02-14T14:55:06;3.10;;;1.90;;
84138;SDS011;74250;51.528;6.748;2024-02-14T14:57:32;3.08;;;1.73;;
84138;SDS011;74250;51.528;6.748;2024-02-14T15:00:05;3.65;;;1.27;;
84138;SDS011;74250;51.528;6.748;2024-02-14T15:02:31;1.40;;;0.95;;